sensor_id;sensor_type;location;lat;lon;timestamp;temperature;humidity
782;DHT22;374;52.568;13.402;2023-06-14T00:00:17;19.10;62.90
782;DHT22;374;52.568;13.402;2023-06-14T00:02:43;19.00;63.30
782;DHT22;374;52.568;13.402;2023-06-14T00:05:08;19.00;63.30
782;DHT22;374;52.568;13.402;2023-06-14T00:07:39;19.00;63.40
782;DHT22;374;52.568;13.402;2023-06-14T00:10:09;19.00;63.50
782;DHT22;374;52.568;13.402;2023-06-14T00:12:35;19.00;63.80
782;DHT22;374;52.568;13.402;2023-06-14T00:15:01;19.00;63.80
782;DHT22;374;52.568;13.402;2023-06-14T00:17:28;19.00;63.90
782;DHT22;374;52.568;13.402;2023-06-14T00:19:57;19.00;64.10
782;DHT22;374;52.568;13.402;2023-06-14T00:22:24;19.00;64.20
782;DHT22;374;52.568;13.402;2023-06-14T00:24:50;18.90;64.20
782;DHT22;374;52.568;13.402;2023-06-14T00:27:16;18.90;64.20
782;DHT22;374;52.568;13.402;2023-06-14T00:29:41;18.90;64.60
782;DHT22;374;52.568;13.402;2023-06-14T00:32:07;18.90;64.60
782;DHT22;374;52.568;13.402;2023-06-14T00:34:33;18.80;64.70
782;DHT22;374;52.568;13.402;2023-06-14T00:36:59;18.80;64.80
782;DHT22;374;52.568;13.402;2023-06-14T00:39:24;18.80;65.00
782;DHT22;374;52.568;13.402;2023-06-14T00:41:50;18.80;65.10
782;DHT22;374;52.568;13.402;2023-06-14T00:44:16;18.70;65.10
782;DHT22;374;52.568;13.402;2023-06-14T00:46:43;18.70;65.30
782;DHT22;374;52.568;13.402;2023-06-14T00:49:09;18.70;65.40
782;DHT22;374;52.568;13.402;2023-06-14T00:51:36;18.60;65.50
782;DHT22;374;52.568;13.402;2023-06-14T00:54:03;18.60;65.70
782;DHT22;374;52.568;13.402;2023-06-14T00:56:28;18.60;65.90
782;DHT22;374;52.568;13.402;2023-06-14T00:58:55;18.60;65.90
782;DHT22;374;52.568;13.402;2023-06-14T01:01:21;18.60;66.10
782;DHT22;374;52.568;13.402;2023-06-14T01:03:47;18.60;66.40
782;DHT22;374;52.568;13.402;2023-06-14T01:06:28;18.50;66.50
782;DHT22;374;52.568;13.402;2023-06-14T01:11:30;18.50;66.80
782;DHT22;374;52.568;13.402;2023-06-14T01:14:00;18.40;66.90
782;DHT22;374;52.568;13.402;2023-06-14T01:16:27;18.40;67.10
782;DHT22;374;52.568;13.402;2023-06-14T01:18:53;18.40;67.20
782;DHT22;374;52.568;13.402;2023-06-14T01:21:25;18.40;67.50
782;DHT22;374;52.568;13.402;2023-06-14T01:23:51;18.40;67.60
782;DHT22;374;52.568;13.402;2023-06-14T01:26:19;18.30;67.70
782;DHT22;374;52.568;13.402;2023-06-14T01:28:45;18.30;67.80
782;DHT22;374;52.568;13.402;2023-06-14T01:31:17;18.30;68.10
782;DHT22;374;52.568;13.402;2023-06-14T01:33:44;18.30;68.20
782;DHT22;374;52.568;13.402;2023-06-14T01:36:09;18.30;68.30
782;DHT22;374;52.568;13.402;2023-06-14T01:38:36;18.30;68.30
782;DHT22;374;52.568;13.402;2023-06-14T01:41:02;18.30;68.50
782;DHT22;374;52.568;13.402;2023-06-14T01:43:30;18.20;68.40
782;DHT22;374;52.568;13.402;2023-06-14T01:45:57;18.20;68.60
782;DHT22;374;52.568;13.402;2023-06-14T01:48:25;18.20;68.70
782;DHT22;374;52.568;13.402;2023-06-14T01:50:52;18.20;69.10
782;DHT22;374;52.568;13.402;2023-06-14T01:53:17;18.20;69.10
782;DHT22;374;52.568;13.402;2023-06-14T01:55:43;18.10;69.40
782;DHT22;374;52.568;13.402;2023-06-14T01:58:10;18.10;69.50
782;DHT22;374;52.568;13.402;2023-06-14T02:00:36;18.00;69.60
782;DHT22;374;52.568;13.402;2023-06-14T02:03:02;18.00;69.80
782;DHT22;374;52.568;13.402;2023-06-14T02:05:29;18.00;70.00
782;DHT22;374;52.568;13.402;2023-06-14T02:07:55;18.00;70.10
782;DHT22;374;52.568;13.402;2023-06-14T02:10:20;18.00;70.20
782;DHT22;374;52.568;13.402;2023-06-14T02:12:46;17.90;70.40
782;DHT22;374;52.568;13.402;2023-06-14T02:15:12;17.90;70.50
782;DHT22;374;52.568;13.402;2023-06-14T02:17:44;17.90;70.60
782;DHT22;374;52.568;13.402;2023-06-14T02:20:10;17.80;70.60
782;DHT22;374;52.568;13.402;2023-06-14T02:22:36;17.80;71.00
782;DHT22;374;52.568;13.402;2023-06-14T02:25:01;17.80;71.20
782;DHT22;374;52.568;13.402;2023-06-14T02:27:27;17.70;71.30
782;DHT22;374;52.568;13.402;2023-06-14T02:29:52;17.70;71.50
782;DHT22;374;52.568;13.402;2023-06-14T02:32:18;17.70;71.60
782;DHT22;374;52.568;13.402;2023-06-14T02:34:43;17.70;71.80
782;DHT22;374;52.568;13.402;2023-06-14T02:37:09;17.70;72.00
782;DHT22;374;52.568;13.402;2023-06-14T02:39:34;17.70;71.90
782;DHT22;374;52.568;13.402;2023-06-14T02:42:00;17.70;72.30
782;DHT22;374;52.568;13.402;2023-06-14T02:44:26;17.70;72.50
782;DHT22;374;52.568;13.402;2023-06-14T02:46:53;17.60;72.30
782;DHT22;374;52.568;13.402;2023-06-14T02:49:19;17.70;72.50
782;DHT22;374;52.568;13.402;2023-06-14T02:51:45;17.60;72.50
782;DHT22;374;52.568;13.402;2023-06-14T02:54:10;17.60;72.60
782;DHT22;374;52.568;13.402;2023-06-14T02:56:36;17.60;72.70
782;DHT22;374;52.568;13.402;2023-06-14T02:59:02;17.60;73.10
782;DHT22;374;52.568;13.402;2023-06-14T03:01:27;17.60;73.10
782;DHT22;374;52.568;13.402;2023-06-14T03:03:59;17.60;73.20
782;DHT22;374;52.568;13.402;2023-06-14T03:06:25;17.60;73.50
782;DHT22;374;52.568;13.402;2023-06-14T03:08:50;17.60;73.40
782;DHT22;374;52.568;13.402;2023-06-14T03:11:16;17.60;73.70
782;DHT22;374;52.568;13.402;2023-06-14T03:13:45;17.50;73.80
782;DHT22;374;52.568;13.402;2023-06-14T03:16:12;17.50;74.10
782;DHT22;374;52.568;13.402;2023-06-14T03:18:37;17.50;74.30
782;DHT22;374;52.568;13.402;2023-06-14T03:21:03;17.50;74.20
782;DHT22;374;52.568;13.402;2023-06-14T03:23:29;17.50;74.40
782;DHT22;374;52.568;13.402;2023-06-14T03:25:55;17.40;74.60
782;DHT22;374;52.568;13.402;2023-06-14T03:28:21;17.50;74.80
782;DHT22;374;52.568;13.402;2023-06-14T03:30:46;17.40;74.90
782;DHT22;374;52.568;13.402;2023-06-14T03:33:12;17.40;75.00
782;DHT22;374;52.568;13.402;2023-06-14T03:35:37;17.40;75.30
782;DHT22;374;52.568;13.402;2023-06-14T03:38:03;17.40;75.40
782;DHT22;374;52.568;13.402;2023-06-14T03:40:29;17.40;75.60
782;DHT22;374;52.568;13.402;2023-06-14T03:42:55;17.40;75.60
782;DHT22;374;52.568;13.402;2023-06-14T03:45:20;17.40;75.60
782;DHT22;374;52.568;13.402;2023-06-14T03:47:46;17.40;75.90
782;DHT22;374;52.568;13.402;2023-06-14T03:50:11;17.40;75.90
782;DHT22;374;52.568;13.402;2023-06-14T03:52:37;17.30;75.90
782;DHT22;374;52.568;13.402;2023-06-14T03:55:04;17.30;76.30
782;DHT22;374;52.568;13.402;2023-06-14T03:57:30;17.30;76.40
782;DHT22;374;52.568;13.402;2023-06-14T03:59:55;17.30;76.70
782;DHT22;374;52.568;13.402;2023-06-14T04:02:21;17.30;76.80
782;DHT22;374;52.568;13.402;2023-06-14T04:04:48;17.30;76.80
782;DHT22;374;52.568;13.402;2023-06-14T04:07:14;17.30;76.90
782;DHT22;374;52.568;13.402;2023-06-14T04:09:40;17.30;77.00
782;DHT22;374;52.568;13.402;2023-06-14T04:12:07;17.30;77.20
782;DHT22;374;52.568;13.402;2023-06-14T04:14:34;17.30;77.40
782;DHT22;374;52.568;13.402;2023-06-14T04:17:00;17.30;77.50
782;DHT22;374;52.568;13.402;2023-06-14T04:19:26;17.30;78.30
782;DHT22;374;52.568;13.402;2023-06-14T04:21:52;17.30;77.80
782;DHT22;374;52.568;13.402;2023-06-14T04:24:17;17.30;78.00
782;DHT22;374;52.568;13.402;2023-06-14T04:26:43;17.30;78.20
782;DHT22;374;52.568;13.402;2023-06-14T04:29:13;17.30;78.20
782;DHT22;374;52.568;13.402;2023-06-14T04:31:40;17.30;78.40
782;DHT22;374;52.568;13.402;2023-06-14T04:34:06;17.30;78.50
782;DHT22;374;52.568;13.402;2023-06-14T04:36:35;17.30;78.50
782;DHT22;374;52.568;13.402;2023-06-14T04:39:04;17.30;78.60
782;DHT22;374;52.568;13.402;2023-06-14T04:41:30;17.30;78.90
782;DHT22;374;52.568;13.402;2023-06-14T04:44:01;17.30;79.00
782;DHT22;374;52.568;13.402;2023-06-14T04:46:29;17.30;78.90
782;DHT22;374;52.568;13.402;2023-06-14T04:48:55;17.30;79.30
782;DHT22;374;52.568;13.402;2023-06-14T04:51:21;17.30;79.20
782;DHT22;374;52.568;13.402;2023-06-14T04:53:55;17.30;79.60
782;DHT22;374;52.568;13.402;2023-06-14T04:56:22;17.30;79.60
782;DHT22;374;52.568;13.402;2023-06-14T04:58:48;17.30;79.70
782;DHT22;374;52.568;13.402;2023-06-14T05:01:14;17.30;79.90
782;DHT22;374;52.568;13.402;2023-06-14T05:03:39;17.30;80.00
782;DHT22;374;52.568;13.402;2023-06-14T05:06:04;17.40;80.00
782;DHT22;374;52.568;13.402;2023-06-14T05:08:31;17.30;80.10
782;DHT22;374;52.568;13.402;2023-06-14T05:10:56;17.30;80.10
782;DHT22;374;52.568;13.402;2023-06-14T05:13:22;17.40;80.40
782;DHT22;374;52.568;13.402;2023-06-14T05:15:48;17.30;80.30
782;DHT22;374;52.568;13.402;2023-06-14T05:18:14;17.30;80.60
782;DHT22;374;52.568;13.402;2023-06-14T05:20:41;17.40;80.70
782;DHT22;374;52.568;13.402;2023-06-14T05:23:08;17.40;80.70
782;DHT22;374;52.568;13.402;2023-06-14T05:25:33;17.40;81.10
782;DHT22;374;52.568;13.402;2023-06-14T05:27:59;17.40;81.10
782;DHT22;374;52.568;13.402;2023-06-14T05:30:24;17.40;81.30
782;DHT22;374;52.568;13.402;2023-06-14T05:32:50;17.40;81.50
782;DHT22;374;52.568;13.402;2023-06-14T05:35:15;17.40;81.50
782;DHT22;374;52.568;13.402;2023-06-14T05:37:41;17.40;81.30
782;DHT22;374;52.568;13.402;2023-06-14T05:40:07;17.40;81.20
782;DHT22;374;52.568;13.402;2023-06-14T05:42:34;17.40;81.50
782;DHT22;374;52.568;13.402;2023-06-14T05:44:59;17.40;81.60
782;DHT22;374;52.568;13.402;2023-06-14T05:47:25;17.40;81.50
782;DHT22;374;52.568;13.402;2023-06-14T05:49:53;17.40;81.80
782;DHT22;374;52.568;13.402;2023-06-14T05:52:18;17.40;81.50
782;DHT22;374;52.568;13.402;2023-06-14T05:54:44;17.40;81.50
782;DHT22;374;52.568;13.402;2023-06-14T05:57:10;17.40;81.60
782;DHT22;374;52.568;13.402;2023-06-14T05:59:35;17.40;81.70
782;DHT22;374;52.568;13.402;2023-06-14T06:02:01;17.40;81.50
782;DHT22;374;52.568;13.402;2023-06-14T06:04:27;17.40;81.60
782;DHT22;374;52.568;13.402;2023-06-14T06:06:52;17.40;81.70
782;DHT22;374;52.568;13.402;2023-06-14T06:09:18;17.40;82.20
782;DHT22;374;52.568;13.402;2023-06-14T06:11:44;17.40;81.70
782;DHT22;374;52.568;13.402;2023-06-14T06:14:09;17.40;81.70
782;DHT22;374;52.568;13.402;2023-06-14T06:16:35;17.40;82.10
782;DHT22;374;52.568;13.402;2023-06-14T06:19:00;17.40;81.90
782;DHT22;374;52.568;13.402;2023-06-14T06:21:26;17.40;81.70
782;DHT22;374;52.568;13.402;2023-06-14T06:23:51;17.40;81.70
782;DHT22;374;52.568;13.402;2023-06-14T06:26:17;17.40;82.40
782;DHT22;374;52.568;13.402;2023-06-14T06:28:42;17.40;82.40
782;DHT22;374;52.568;13.402;2023-06-14T06:31:08;17.40;82.40
782;DHT22;374;52.568;13.402;2023-06-14T06:33:33;17.40;82.40
782;DHT22;374;52.568;13.402;2023-06-14T06:35:59;17.40;82.50
782;DHT22;374;52.568;13.402;2023-06-14T06:38:24;17.40;83.00
782;DHT22;374;52.568;13.402;2023-06-14T06:40:50;17.40;82.90
782;DHT22;374;52.568;13.402;2023-06-14T06:43:16;17.40;83.00
782;DHT22;374;52.568;13.402;2023-06-14T06:45:43;17.40;83.10
782;DHT22;374;52.568;13.402;2023-06-14T06:48:08;17.40;83.00
782;DHT22;374;52.568;13.402;2023-06-14T06:50:35;17.40;82.60
782;DHT22;374;52.568;13.402;2023-06-14T06:53:01;17.40;83.30
782;DHT22;374;52.568;13.402;2023-06-14T06:55:27;17.40;83.00
782;DHT22;374;52.568;13.402;2023-06-14T06:57:52;17.40;82.70
782;DHT22;374;52.568;13.402;2023-06-14T07:00:19;17.40;83.30
782;DHT22;374;52.568;13.402;2023-06-14T07:02:45;17.40;82.00
782;DHT22;374;52.568;13.402;2023-06-14T07:05:11;17.40;82.50
782;DHT22;374;52.568;13.402;2023-06-14T07:07:36;17.40;83.20
782;DHT22;374;52.568;13.402;2023-06-14T07:10:03;17.40;83.00
782;DHT22;374;52.568;13.402;2023-06-14T07:12:30;17.40;82.30
782;DHT22;374;52.568;13.402;2023-06-14T07:14:58;17.40;82.80
782;DHT22;374;52.568;13.402;2023-06-14T07:17:24;17.40;83.20
782;DHT22;374;52.568;13.402;2023-06-14T07:19:50;17.40;83.30
782;DHT22;374;52.568;13.402;2023-06-14T07:22:16;17.40;82.40
782;DHT22;374;52.568;13.402;2023-06-14T07:24:41;17.40;82.40
782;DHT22;374;52.568;13.402;2023-06-14T07:27:07;17.40;82.20
782;DHT22;374;52.568;13.402;2023-06-14T07:29:33;17.30;82.30
782;DHT22;374;52.568;13.402;2023-06-14T07:31:58;17.30;82.50
782;DHT22;374;52.568;13.402;2023-06-14T07:34:24;17.40;83.10
782;DHT22;374;52.568;13.402;2023-06-14T07:36:49;17.30;82.60
782;DHT22;374;52.568;13.402;2023-06-14T07:39:14;17.40;82.60
782;DHT22;374;52.568;13.402;2023-06-14T07:41:40;17.40;83.00
782;DHT22;374;52.568;13.402;2023-06-14T07:44:05;17.40;83.50
782;DHT22;374;52.568;13.402;2023-06-14T07:46:31;17.40;83.50
782;DHT22;374;52.568;13.402;2023-06-14T07:48:56;17.40;83.40
782;DHT22;374;52.568;13.402;2023-06-14T07:51:22;17.50;83.50
782;DHT22;374;52.568;13.402;2023-06-14T07:53:48;17.50;84.10
782;DHT22;374;52.568;13.402;2023-06-14T07:56:14;17.50;82.90
782;DHT22;374;52.568;13.402;2023-06-14T07:58:40;17.60;84.40
782;DHT22;374;52.568;13.402;2023-06-14T08:01:06;17.60;83.90
782;DHT22;374;52.568;13.402;2023-06-14T08:03:33;17.60;84.10
782;DHT22;374;52.568;13.402;2023-06-14T08:05:59;17.70;83.30
782;DHT22;374;52.568;13.402;2023-06-14T08:08:26;17.70;83.50
782;DHT22;374;52.568;13.402;2023-06-14T08:10:52;17.70;83.50
782;DHT22;374;52.568;13.402;2023-06-14T08:13:17;17.80;83.50
782;DHT22;374;52.568;13.402;2023-06-14T08:15:43;17.80;83.30
782;DHT22;374;52.568;13.402;2023-06-14T08:18:09;17.80;83.50
782;DHT22;374;52.568;13.402;2023-06-14T08:20:34;17.80;83.40
782;DHT22;374;52.568;13.402;2023-06-14T08:23:01;17.90;83.20
782;DHT22;374;52.568;13.402;2023-06-14T08:25:27;18.00;84.00
782;DHT22;374;52.568;13.402;2023-06-14T08:27:52;18.00;84.00
782;DHT22;374;52.568;13.402;2023-06-14T08:30:18;18.10;83.00
782;DHT22;374;52.568;13.402;2023-06-14T08:32:43;18.10;82.70
782;DHT22;374;52.568;13.402;2023-06-14T08:35:09;18.20;82.40
782;DHT22;374;52.568;13.402;2023-06-14T08:37:44;18.20;82.70
782;DHT22;374;52.568;13.402;2023-06-14T08:40:19;18.20;82.70
782;DHT22;374;52.568;13.402;2023-06-14T08:42:50;18.20;82.80
782;DHT22;374;52.568;13.402;2023-06-14T08:45:15;18.40;83.20
782;DHT22;374;52.568;13.402;2023-06-14T08:47:41;18.50;82.40
782;DHT22;374;52.568;13.402;2023-06-14T08:50:07;18.50;81.60
782;DHT22;374;52.568;13.402;2023-06-14T08:52:37;18.50;80.60
782;DHT22;374;52.568;13.402;2023-06-14T08:55:08;18.50;80.50
782;DHT22;374;52.568;13.402;2023-06-14T08:57:36;18.50;79.80
782;DHT22;374;52.568;13.402;2023-06-14T09:00:03;18.50;79.40
782;DHT22;374;52.568;13.402;2023-06-14T09:02:38;18.50;79.00
782;DHT22;374;52.568;13.402;2023-06-14T09:05:11;18.50;78.90
782;DHT22;374;52.568;13.402;2023-06-14T09:07:41;18.50;78.80
782;DHT22;374;52.568;13.402;2023-06-14T09:10:12;18.50;78.70
782;DHT22;374;52.568;13.402;2023-06-14T09:12:38;18.50;79.30
782;DHT22;374;52.568;13.402;2023-06-14T09:15:05;18.50;79.20
782;DHT22;374;52.568;13.402;2023-06-14T09:17:38;18.60;79.20
782;DHT22;374;52.568;13.402;2023-06-14T09:20:06;18.60;79.20
782;DHT22;374;52.568;13.402;2023-06-14T09:22:35;18.60;79.30
782;DHT22;374;52.568;13.402;2023-06-14T09:25:00;18.70;79.60
782;DHT22;374;52.568;13.402;2023-06-14T09:27:28;18.70;79.00
782;DHT22;374;52.568;13.402;2023-06-14T09:29:54;18.70;79.20
782;DHT22;374;52.568;13.402;2023-06-14T09:32:21;18.70;78.50
782;DHT22;374;52.568;13.402;2023-06-14T09:34:46;18.80;78.00
782;DHT22;374;52.568;13.402;2023-06-14T09:37:12;18.80;78.30
782;DHT22;374;52.568;13.402;2023-06-14T09:39:50;18.80;77.30
782;DHT22;374;52.568;13.402;2023-06-14T09:42:17;18.80;77.60
782;DHT22;374;52.568;13.402;2023-06-14T09:44:48;18.80;77.40
782;DHT22;374;52.568;13.402;2023-06-14T09:47:18;18.80;77.80
782;DHT22;374;52.568;13.402;2023-06-14T09:49:43;18.80;77.50
782;DHT22;374;52.568;13.402;2023-06-14T09:52:17;18.90;77.60
782;DHT22;374;52.568;13.402;2023-06-14T09:54:44;18.80;77.20
782;DHT22;374;52.568;13.402;2023-06-14T09:57:13;18.90;77.30
782;DHT22;374;52.568;13.402;2023-06-14T09:59:46;18.80;77.10
782;DHT22;374;52.568;13.402;2023-06-14T10:02:26;18.90;77.30
782;DHT22;374;52.568;13.402;2023-06-14T10:05:03;18.90;77.50
782;DHT22;374;52.568;13.402;2023-06-14T10:08:04;18.90;77.40
782;DHT22;374;52.568;13.402;2023-06-14T10:10:30;19.00;77.00
782;DHT22;374;52.568;13.402;2023-06-14T10:12:56;19.00;77.10
782;DHT22;374;52.568;13.402;2023-06-14T10:15:40;19.00;77.40
782;DHT22;374;52.568;13.402;2023-06-14T10:18:11;19.00;77.10
782;DHT22;374;52.568;13.402;2023-06-14T10:21:01;19.00;77.30
782;DHT22;374;52.568;13.402;2023-06-14T10:23:32;19.00;76.60
782;DHT22;374;52.568;13.402;2023-06-14T10:26:00;19.00;76.60
782;DHT22;374;52.568;13.402;2023-06-14T10:28:26;19.10;76.60
782;DHT22;374;52.568;13.402;2023-06-14T10:31:11;19.10;76.50
782;DHT22;374;52.568;13.402;2023-06-14T10:33:49;19.10;77.00
782;DHT22;374;52.568;13.402;2023-06-14T10:41:35;19.20;76.40
782;DHT22;374;52.568;13.402;2023-06-14T10:46:59;19.30;76.10
782;DHT22;374;52.568;13.402;2023-06-14T10:49:40;19.30;76.10
782;DHT22;374;52.568;13.402;2023-06-14T10:52:09;19.30;75.60
782;DHT22;374;52.568;13.402;2023-06-14T10:54:37;19.30;75.60
782;DHT22;374;52.568;13.402;2023-06-14T10:57:06;19.30;75.50
782;DHT22;374;52.568;13.402;2023-06-14T10:59:32;19.30;75.00
782;DHT22;374;52.568;13.402;2023-06-14T11:02:27;19.40;75.00
782;DHT22;374;52.568;13.402;2023-06-14T11:05:03;19.40;74.40
782;DHT22;374;52.568;13.402;2023-06-14T11:07:53;19.40;74.00
782;DHT22;374;52.568;13.402;2023-06-14T11:10:34;19.40;73.20
782;DHT22;374;52.568;13.402;2023-06-14T11:13:01;19.40;73.20
782;DHT22;374;52.568;13.402;2023-06-14T11:15:32;19.50;73.80
782;DHT22;374;52.568;13.402;2023-06-14T11:18:00;19.50;72.00
782;DHT22;374;52.568;13.402;2023-06-14T11:20:30;19.60;71.60
782;DHT22;374;52.568;13.402;2023-06-14T11:22:56;19.60;72.50
782;DHT22;374;52.568;13.402;2023-06-14T11:25:22;19.60;72.90
782;DHT22;374;52.568;13.402;2023-06-14T11:27:49;19.60;71.60
782;DHT22;374;52.568;13.402;2023-06-14T11:30:16;19.60;71.10
782;DHT22;374;52.568;13.402;2023-06-14T11:32:41;19.60;69.90
782;DHT22;374;52.568;13.402;2023-06-14T11:35:08;19.60;69.50
782;DHT22;374;52.568;13.402;2023-06-14T11:37:36;19.70;69.40
782;DHT22;374;52.568;13.402;2023-06-14T11:40:06;19.70;69.20
782;DHT22;374;52.568;13.402;2023-06-14T11:42:35;19.70;69.30
782;DHT22;374;52.568;13.402;2023-06-14T11:45:01;19.80;69.00
782;DHT22;374;52.568;13.402;2023-06-14T11:47:34;19.80;68.20
782;DHT22;374;52.568;13.402;2023-06-14T11:50:00;19.80;67.50
782;DHT22;374;52.568;13.402;2023-06-14T11:52:25;19.80;68.20
782;DHT22;374;52.568;13.402;2023-06-14T11:54:51;19.90;67.20
782;DHT22;374;52.568;13.402;2023-06-14T11:57:18;19.90;66.00
782;DHT22;374;52.568;13.402;2023-06-14T11:59:44;19.90;65.50
782;DHT22;374;52.568;13.402;2023-06-14T12:02:14;19.90;65.00
782;DHT22;374;52.568;13.402;2023-06-14T12:04:44;19.90;64.10
782;DHT22;374;52.568;13.402;2023-06-14T12:07:14;20.00;62.80
782;DHT22;374;52.568;13.402;2023-06-14T12:10:07;20.00;62.70
782;DHT22;374;52.568;13.402;2023-06-14T12:12:37;20.00;63.00
782;DHT22;374;52.568;13.402;2023-06-14T12:15:04;20.00;64.00
782;DHT22;374;52.568;13.402;2023-06-14T12:17:35;20.00;63.20
782;DHT22;374;52.568;13.402;2023-06-14T12:20:06;20.00;63.40
782;DHT22;374;52.568;13.402;2023-06-14T12:22:54;20.00;62.30
782;DHT22;374;52.568;13.402;2023-06-14T12:25:33;20.00;62.00
782;DHT22;374;52.568;13.402;2023-06-14T12:28:06;20.10;63.20
782;DHT22;374;52.568;13.402;2023-06-14T12:30:33;20.00;63.00
782;DHT22;374;52.568;13.402;2023-06-14T12:32:59;20.00;62.80
782;DHT22;374;52.568;13.402;2023-06-14T12:35:25;20.00;63.30
782;DHT22;374;52.568;13.402;2023-06-14T12:37:51;20.10;62.20
782;DHT22;374;52.568;13.402;2023-06-14T12:40:16;20.10;61.80
782;DHT22;374;52.568;13.402;2023-06-14T12:42:42;20.10;61.60
782;DHT22;374;52.568;13.402;2023-06-14T12:45:08;20.20;62.20
782;DHT22;374;52.568;13.402;2023-06-14T12:47:34;20.20;60.60
782;DHT22;374;52.568;13.402;2023-06-14T12:50:00;20.20;61.10
782;DHT22;374;52.568;13.402;2023-06-14T12:52:26;20.20;61.20
782;DHT22;374;52.568;13.402;2023-06-14T12:54:51;20.30;60.90
782;DHT22;374;52.568;13.402;2023-06-14T12:57:17;20.30;60.30
782;DHT22;374;52.568;13.402;2023-06-14T12:59:42;20.30;60.70
782;DHT22;374;52.568;13.402;2023-06-14T13:02:16;20.30;60.10
782;DHT22;374;52.568;13.402;2023-06-14T13:04:42;20.30;59.90
782;DHT22;374;52.568;13.402;2023-06-14T13:07:08;20.40;60.00
782;DHT22;374;52.568;13.402;2023-06-14T13:09:35;20.50;58.80
782;DHT22;374;52.568;13.402;2023-06-14T13:12:01;20.50;58.90
782;DHT22;374;52.568;13.402;2023-06-14T13:14:27;20.50;59.20
782;DHT22;374;52.568;13.402;2023-06-14T13:16:52;20.50;59.60
782;DHT22;374;52.568;13.402;2023-06-14T13:19:18;20.50;59.10
782;DHT22;374;52.568;13.402;2023-06-14T13:21:43;20.60;58.70
782;DHT22;374;52.568;13.402;2023-06-14T13:24:09;20.60;58.50
782;DHT22;374;52.568;13.402;2023-06-14T13:26:34;20.60;58.30
782;DHT22;374;52.568;13.402;2023-06-14T13:29:00;20.70;57.20
782;DHT22;374;52.568;13.402;2023-06-14T13:31:26;20.70;56.60
782;DHT22;374;52.568;13.402;2023-06-14T13:33:51;20.70;56.80
782;DHT22;374;52.568;13.402;2023-06-14T13:36:17;20.70;57.00
782;DHT22;374;52.568;13.402;2023-06-14T13:38:42;20.70;56.40
782;DHT22;374;52.568;13.402;2023-06-14T13:41:08;20.80;56.70
782;DHT22;374;52.568;13.402;2023-06-14T13:43:33;20.80;56.70
782;DHT22;374;52.568;13.402;2023-06-14T13:45:59;20.80;56.50
782;DHT22;374;52.568;13.402;2023-06-14T13:48:24;20.80;55.70
782;DHT22;374;52.568;13.402;2023-06-14T13:50:50;20.80;56.40
782;DHT22;374;52.568;13.402;2023-06-14T13:53:15;20.80;56.50
782;DHT22;374;52.568;13.402;2023-06-14T13:55:41;20.80;55.90
782;DHT22;374;52.568;13.402;2023-06-14T13:58:06;20.90;55.30
782;DHT22;374;52.568;13.402;2023-06-14T14:00:32;20.90;56.00
782;DHT22;374;52.568;13.402;2023-06-14T14:02:57;20.90;55.50
782;DHT22;374;52.568;13.402;2023-06-14T14:05:25;20.90;55.80
782;DHT22;374;52.568;13.402;2023-06-14T14:07:55;20.90;56.10
782;DHT22;374;52.568;13.402;2023-06-14T14:10:20;20.90;55.20
782;DHT22;374;52.568;13.402;2023-06-14T14:12:46;21.00;54.40
782;DHT22;374;52.568;13.402;2023-06-14T14:15:13;21.00;55.40
782;DHT22;374;52.568;13.402;2023-06-14T14:17:40;21.00;56.40
782;DHT22;374;52.568;13.402;2023-06-14T14:20:06;21.00;56.90
782;DHT22;374;52.568;13.402;2023-06-14T14:22:32;21.00;57.20
782;DHT22;374;52.568;13.402;2023-06-14T14:24:57;21.00;57.40
782;DHT22;374;52.568;13.402;2023-06-14T14:27:23;21.10;57.70
782;DHT22;374;52.568;13.402;2023-06-14T14:29:48;21.10;57.80
782;DHT22;374;52.568;13.402;2023-06-14T14:32:14;21.10;58.00
782;DHT22;374;52.568;13.402;2023-06-14T14:34:40;21.10;57.80
782;DHT22;374;52.568;13.402;2023-06-14T14:37:06;21.10;57.70
782;DHT22;374;52.568;13.402;2023-06-14T14:39:31;21.10;58.10
782;DHT22;374;52.568;13.402;2023-06-14T14:41:57;21.10;58.00
782;DHT22;374;52.568;13.402;2023-06-14T14:44:22;21.10;57.60
782;DHT22;374;52.568;13.402;2023-06-14T14:46:48;21.10;57.60
782;DHT22;374;52.568;13.402;2023-06-14T14:49:13;21.10;57.80
782;DHT22;374;52.568;13.402;2023-06-14T14:51:39;21.10;58.10
782;DHT22;374;52.568;13.402;2023-06-14T14:54:05;21.10;58.10
782;DHT22;374;52.568;13.402;2023-06-14T14:56:31;21.20;57.90
782;DHT22;374;52.568;13.402;2023-06-14T14:58:56;21.20;57.90
782;DHT22;374;52.568;13.402;2023-06-14T15:01:22;21.20;58.20
782;DHT22;374;52.568;13.402;2023-06-14T15:03:47;21.20;58.30
782;DHT22;374;52.568;13.402;2023-06-14T15:06:15;21.10;58.30
782;DHT22;374;52.568;13.402;2023-06-14T15:08:43;21.10;58.20
782;DHT22;374;52.568;13.402;2023-06-14T15:11:08;21.10;58.20
782;DHT22;374;52.568;13.402;2023-06-14T15:13:34;21.10;58.30
782;DHT22;374;52.568;13.402;2023-06-14T15:15:59;21.20;58.40
782;DHT22;374;52.568;13.402;2023-06-14T15:18:25;21.20;58.50
782;DHT22;374;52.568;13.402;2023-06-14T15:20:50;21.20;58.40
782;DHT22;374;52.568;13.402;2023-06-14T15:23:16;21.20;58.20
782;DHT22;374;52.568;13.402;2023-06-14T15:25:45;21.20;58.10
782;DHT22;374;52.568;13.402;2023-06-14T15:28:12;21.20;58.40
782;DHT22;374;52.568;13.402;2023-06-14T15:30:37;21.20;58.20
782;DHT22;374;52.568;13.402;2023-06-14T15:33:03;21.20;58.00
782;DHT22;374;52.568;13.402;2023-06-14T15:35:29;21.20;57.70
782;DHT22;374;52.568;13.402;2023-06-14T15:37:54;21.30;57.40
782;DHT22;374;52.568;13.402;2023-06-14T15:40:20;21.20;57.90
782;DHT22;374;52.568;13.402;2023-06-14T15:42:45;21.30;57.40
782;DHT22;374;52.568;13.402;2023-06-14T15:45:11;21.30;57.50
782;DHT22;374;52.568;13.402;2023-06-14T15:47:36;21.30;57.80
782;DHT22;374;52.568;13.402;2023-06-14T15:50:02;21.30;58.00
782;DHT22;374;52.568;13.402;2023-06-14T15:52:30;21.30;57.90
782;DHT22;374;52.568;13.402;2023-06-14T15:54:55;21.30;58.20
782;DHT22;374;52.568;13.402;2023-06-14T15:57:21;21.30;58.10
782;DHT22;374;52.568;13.402;2023-06-14T15:59:47;21.40;57.90
782;DHT22;374;52.568;13.402;2023-06-14T16:02:12;21.40;57.40
782;DHT22;374;52.568;13.402;2023-06-14T16:04:38;21.40;57.50
782;DHT22;374;52.568;13.402;2023-06-14T16:07:03;21.40;57.70
782;DHT22;374;52.568;13.402;2023-06-14T16:09:31;21.40;57.60
782;DHT22;374;52.568;13.402;2023-06-14T16:11:57;21.40;57.40
782;DHT22;374;52.568;13.402;2023-06-14T16:14:23;21.40;57.80
782;DHT22;374;52.568;13.402;2023-06-14T16:16:48;21.40;57.40
782;DHT22;374;52.568;13.402;2023-06-14T16:19:14;21.40;57.50
782;DHT22;374;52.568;13.402;2023-06-14T16:21:39;21.40;57.50
782;DHT22;374;52.568;13.402;2023-06-14T16:24:05;21.40;57.80
782;DHT22;374;52.568;13.402;2023-06-14T16:26:31;21.50;57.50